createdAt,value
2023-02-16T00:01:29.627Z,4.10
2023-02-16T00:03:58.768Z,4.20
2023-02-16T00:06:29.643Z,4.10
2023-02-16T00:08:58.134Z,4.10
2023-02-16T00:11:52.982Z,4.20
2023-02-16T00:14:26.316Z,4.40
2023-02-16T00:16:59.163Z,4.50
2023-02-16T00:19:28.891Z,4.40
2023-02-16T00:22:00.679Z,4.10
2023-02-16T00:24:30.304Z,4.00
2023-02-16T00:27:00.732Z,4.00
2023-02-16T00:29:30.894Z,4.00
2023-02-16T00:32:01.169Z,3.90
2023-02-16T00:34:33.558Z,4.00
2023-02-16T00:37:12.848Z,4.10
2023-02-16T00:39:43.252Z,4.00
2023-02-16T00:42:18.792Z,3.90
2023-02-16T00:44:52.887Z,3.80
2023-02-16T00:47:37.850Z,3.70
2023-02-16T00:50:31.767Z,3.70
2023-02-16T00:53:01.052Z,3.50
2023-02-16T00:55:34.438Z,3.50
2023-02-16T00:58:12.226Z,3.40
2023-02-16T01:00:45.231Z,3.40
2023-02-16T01:03:15.641Z,3.30
2023-02-16T01:05:43.597Z,3.20
2023-02-16T01:08:32.466Z,3.00
2023-02-16T01:11:12.802Z,3.10
2023-02-16T01:13:46.485Z,3.10
2023-02-16T01:16:18.562Z,3.00
2023-02-16T01:18:47.951Z,2.90
2023-02-16T01:21:15.881Z,2.90
2023-02-16T01:23:44.925Z,2.80
2023-02-16T01:26:16.499Z,2.70
2023-02-16T01:28:47.270Z,2.70
2023-02-16T01:31:18.578Z,2.60
2023-02-16T01:33:47.032Z,2.50
2023-02-16T01:36:29.805Z,2.40
2023-02-16T01:38:57.936Z,2.30
2023-02-16T01:41:56.868Z,2.40
2023-02-16T01:44:34.741Z,2.40
2023-02-16T01:47:18.045Z,2.40
2023-02-16T01:49:46.462Z,2.40
2023-02-16T01:52:25.205Z,2.30
2023-02-16T01:54:59.708Z,2.20
2023-02-16T01:57:42.779Z,2.10
2023-02-16T02:00:26.601Z,2.10
2023-02-16T02:03:21.658Z,1.90
2023-02-16T02:05:51.595Z,1.80
2023-02-16T02:08:32.818Z,1.80
2023-02-16T02:11:12.154Z,1.80
2023-02-16T02:14:03.179Z,1.90
2023-02-16T02:16:31.519Z,2.00
2023-02-16T02:19:00.269Z,2.10
2023-02-16T02:22:19.338Z,2.10
2023-02-16T02:25:17.366Z,2.10
2023-02-16T02:28:09.563Z,2.00
2023-02-16T02:31:09.084Z,1.90
2023-02-16T02:34:04.197Z,1.80
2023-02-16T02:36:41.957Z,1.60
2023-02-16T02:39:26.894Z,1.60
2023-02-16T02:42:05.499Z,1.70
2023-02-16T02:44:50.422Z,1.70
2023-02-16T02:47:19.121Z,1.70
2023-02-16T02:49:54.794Z,1.70
2023-02-16T02:52:23.619Z,1.70
2023-02-16T02:55:10.642Z,1.80
2023-02-16T02:58:07.574Z,1.80
2023-02-16T03:00:48.040Z,1.80
2023-02-16T03:03:35.569Z,1.80
2023-02-16T03:06:15.592Z,1.80
2023-02-16T03:08:47.955Z,1.80
2023-02-16T03:12:00.541Z,1.90
2023-02-16T03:14:44.158Z,1.80
2023-02-16T03:17:35.515Z,1.60
2023-02-16T03:20:27.266Z,1.50
2023-02-16T03:23:15.077Z,1.60
2023-02-16T03:26:02.241Z,1.60
2023-02-16T03:28:52.229Z,1.70
2023-02-16T03:31:30.222Z,1.80
2023-02-16T03:33:58.996Z,1.90
2023-02-16T03:36:30.467Z,1.90
2023-02-16T03:38:59.677Z,2.00
2023-02-16T03:41:34.526Z,2.00
2023-02-16T03:44:02.628Z,2.00
2023-02-16T03:46:32.351Z,1.80
2023-02-16T03:49:00.379Z,1.50
2023-02-16T03:51:28.675Z,1.50
2023-02-16T03:53:57.165Z,1.50
2023-02-16T03:56:25.566Z,1.50
2023-02-16T03:58:54.030Z,1.50
2023-02-16T04:01:22.032Z,1.50
2023-02-16T04:03:50.035Z,1.30
2023-02-16T04:06:18.183Z,1.20
2023-02-16T04:08:46.772Z,1.10
2023-02-16T04:11:32.940Z,1.00
2023-02-16T04:14:01.467Z,1.00
2023-02-16T04:16:29.569Z,1.10
2023-02-16T04:18:58.026Z,1.20
2023-02-16T04:21:25.947Z,1.20
2023-02-16T04:23:54.062Z,1.10
2023-02-16T04:26:22.549Z,1.00
2023-02-16T04:28:50.507Z,0.90
2023-02-16T04:31:18.608Z,0.90
2023-02-16T04:33:47.381Z,0.80
2023-02-16T04:36:15.499Z,0.80
2023-02-16T04:38:43.826Z,0.70
2023-02-16T04:41:12.855Z,0.70
2023-02-16T04:43:40.710Z,0.60
2023-02-16T04:46:08.728Z,0.70
2023-02-16T04:48:36.701Z,0.70
2023-02-16T04:51:05.756Z,0.80
2023-02-16T04:53:34.082Z,0.70
2023-02-16T04:56:03.431Z,0.70
2023-02-16T04:58:31.520Z,0.80
2023-02-16T05:00:59.955Z,0.90
2023-02-16T05:03:28.712Z,0.90
2023-02-16T05:05:56.585Z,0.70
2023-02-16T05:08:24.545Z,0.50
2023-02-16T05:11:10.771Z,0.50
2023-02-16T05:13:58.426Z,0.40
2023-02-16T05:16:26.828Z,0.30
2023-02-16T05:18:56.890Z,0.20
2023-02-16T05:21:32.286Z,0.20
2023-02-16T05:24:06.087Z,0.30
2023-02-16T05:26:35.636Z,0.40
2023-02-16T05:29:05.057Z,0.30
2023-02-16T05:31:34.070Z,0.30
2023-02-16T05:34:02.216Z,0.30
2023-02-16T05:36:30.412Z,0.30
2023-02-16T05:38:59.461Z,0.20
2023-02-16T05:41:27.605Z,0.20
2023-02-16T05:43:57.156Z,0.10
2023-02-16T05:46:26.402Z,0.10
2023-02-16T05:48:54.815Z,0.20
2023-02-16T05:51:23.956Z,0.20
2023-02-16T05:53:51.973Z,0.20
2023-02-16T05:56:21.591Z,0.20
2023-02-16T05:58:49.794Z,0.20
2023-02-16T06:01:18.136Z,0.30
2023-02-16T06:03:46.280Z,0.30
2023-02-16T06:06:14.798Z,0.40
2023-02-16T06:08:43.094Z,0.40
2023-02-16T06:11:31.975Z,0.60
2023-02-16T06:14:00.306Z,0.70
2023-02-16T06:16:31.631Z,0.80
2023-02-16T06:19:00.529Z,0.90
2023-02-16T06:21:29.590Z,1.20
2023-02-16T06:23:58.064Z,1.40
2023-02-16T06:26:27.593Z,1.70
2023-02-16T06:28:56.010Z,2.00
2023-02-16T06:31:27.137Z,2.20
2023-02-16T06:33:57.052Z,2.40
2023-02-16T06:36:25.770Z,2.60
2023-02-16T06:38:54.653Z,2.80
2023-02-16T06:41:33.804Z,2.90
2023-02-16T06:44:04.269Z,3.20
2023-02-16T06:46:33.481Z,3.70
2023-02-16T06:49:01.572Z,3.70
2023-02-16T06:51:29.995Z,3.60
2023-02-16T06:53:58.499Z,3.30
2023-02-16T06:56:26.529Z,3.20
2023-02-16T06:58:55.124Z,3.20
2023-02-16T07:01:26.087Z,3.20
2023-02-16T07:03:55.670Z,3.20
2023-02-16T07:06:25.612Z,3.20
2023-02-16T07:08:54.195Z,3.20
2023-02-16T07:11:22.136Z,3.30
2023-02-16T07:13:50.248Z,3.40
2023-02-16T07:16:18.886Z,3.50
2023-02-16T07:18:47.715Z,3.70
2023-02-16T07:21:16.188Z,3.60
2023-02-16T07:23:44.666Z,3.60
2023-02-16T07:26:13.063Z,3.70
2023-02-16T07:28:41.354Z,3.80
2023-02-16T07:31:15.299Z,3.80
2023-02-16T07:33:43.820Z,3.80
2023-02-16T07:36:13.216Z,3.90
2023-02-16T07:38:42.365Z,3.90
2023-02-16T07:41:11.316Z,3.80
2023-02-16T07:43:40.900Z,3.80
2023-02-16T07:46:09.110Z,3.90
2023-02-16T07:48:37.674Z,3.80
2023-02-16T07:51:06.333Z,3.90
2023-02-16T07:53:34.457Z,4.00
2023-02-16T07:56:02.927Z,3.90
2023-02-16T07:58:31.400Z,3.90
2023-02-16T08:01:15.762Z,4.00
2023-02-16T08:03:44.070Z,4.10
2023-02-16T08:06:13.224Z,4.20
2023-02-16T08:08:42.193Z,4.30
2023-02-16T08:11:12.552Z,4.50
2023-02-16T08:13:41.302Z,4.60
2023-02-16T08:16:21.582Z,4.70
2023-02-16T08:18:50.904Z,4.70
2023-02-16T08:21:21.949Z,4.70
2023-02-16T08:23:56.286Z,4.80
2023-02-16T08:26:26.540Z,4.90
2023-02-16T08:28:56.647Z,5.00
2023-02-16T08:31:29.981Z,5.10
2023-02-16T08:34:01.862Z,5.20
2023-02-16T08:36:34.732Z,5.00
2023-02-16T08:39:12.949Z,5.10
2023-02-16T08:41:42.442Z,5.40
2023-02-16T08:44:11.822Z,5.60
2023-02-16T08:46:42.712Z,6.00
2023-02-16T08:49:11.426Z,6.60
2023-02-16T08:51:45.525Z,6.70
2023-02-16T08:54:20.324Z,7.00
2023-02-16T08:56:49.974Z,7.20
2023-02-16T08:59:20.103Z,7.40
2023-02-16T09:01:49.137Z,7.60
2023-02-16T09:04:20.100Z,7.60
2023-02-16T09:06:49.158Z,7.80
2023-02-16T09:09:18.295Z,7.90
2023-02-16T09:11:46.391Z,8.20
2023-02-16T09:14:15.637Z,8.50
2023-02-16T09:16:48.809Z,8.70
2023-02-16T09:19:18.584Z,8.90
2023-02-16T09:21:48.472Z,9.10
2023-02-16T09:24:16.590Z,9.30
2023-02-16T09:26:44.809Z,9.30
2023-02-16T09:29:14.153Z,9.40
2023-02-16T09:31:44.619Z,9.40
2023-02-16T09:34:22.732Z,9.40
2023-02-16T09:36:51.590Z,9.60
2023-02-16T09:39:20.373Z,10.00
2023-02-16T09:42:04.194Z,10.20
2023-02-16T09:44:51.232Z,10.40
2023-02-16T09:47:32.172Z,10.80
2023-02-16T09:50:38.414Z,11.30
2023-02-16T09:53:21.560Z,11.90
2023-02-16T09:56:20.788Z,12.70
2023-02-16T09:59:22.765Z,13.10
2023-02-16T10:02:01.922Z,13.70
2023-02-16T10:04:46.071Z,12.80
2023-02-16T10:07:32.021Z,12.40
2023-02-16T10:10:02.840Z,12.80
2023-02-16T10:12:42.260Z,13.40
2023-02-16T10:15:19.864Z,14.00
2023-02-16T10:18:08.268Z,14.10
2023-02-16T10:20:40.003Z,13.60
2023-02-16T10:23:23.759Z,13.70
2023-02-16T10:25:58.674Z,14.20
2023-02-16T10:28:26.862Z,14.40
2023-02-16T10:31:03.624Z,14.20
2023-02-16T10:33:45.230Z,13.50
2023-02-16T10:36:31.882Z,13.00
2023-02-16T10:39:05.912Z,12.70
2023-02-16T10:41:39.963Z,12.80
2023-02-16T10:44:20.705Z,12.50
2023-02-16T10:46:57.809Z,12.60
2023-02-16T10:49:27.119Z,12.10
2023-02-16T10:51:57.335Z,12.40
2023-02-16T10:54:31.043Z,12.70
2023-02-16T10:57:04.020Z,12.70
2023-02-16T10:59:39.158Z,12.90
2023-02-16T11:02:21.256Z,12.80
2023-02-16T11:04:52.667Z,12.90
2023-02-16T11:07:23.716Z,13.10
2023-02-16T11:09:57.517Z,13.20
2023-02-16T11:12:40.055Z,13.30
2023-02-16T11:15:21.371Z,13.20
2023-02-16T11:17:53.702Z,13.20
2023-02-16T11:20:45.244Z,12.60
2023-02-16T11:23:18.027Z,12.90
2023-02-16T11:26:01.154Z,13.10
2023-02-16T11:28:34.981Z,12.80
2023-02-16T11:31:32.459Z,12.60
2023-02-16T11:34:14.189Z,12.60
2023-02-16T11:36:45.889Z,12.60
2023-02-16T11:39:25.441Z,12.80
2023-02-16T11:42:00.271Z,12.80
2023-02-16T11:44:41.679Z,12.90
2023-02-16T11:47:24.067Z,13.10
2023-02-16T11:50:23.359Z,13.10
2023-02-16T11:52:54.116Z,12.80
2023-02-16T11:55:26.947Z,13.00
2023-02-16T11:57:57.210Z,13.10
2023-02-16T12:00:26.676Z,13.10
2023-02-16T12:03:19.237Z,13.00
2023-02-16T12:06:01.311Z,12.80
2023-02-16T12:08:38.655Z,12.80
2023-02-16T12:11:40.090Z,12.90
2023-02-16T12:14:30.686Z,13.10
2023-02-16T12:17:13.199Z,13.40
2023-02-16T12:19:48.133Z,13.50
2023-02-16T12:22:58.530Z,13.50
2023-02-16T12:25:54.106Z,13.30
2023-02-16T12:29:03.283Z,13.30
2023-02-16T12:32:01.230Z,13.40
2023-02-16T12:34:48.757Z,13.00
2023-02-16T12:37:38.231Z,13.10
2023-02-16T12:40:18.260Z,13.20
2023-02-16T12:43:11.105Z,13.30
2023-02-16T12:45:44.195Z,13.60
2023-02-16T12:48:40.344Z,13.60
2023-02-16T12:51:22.055Z,13.30
2023-02-16T12:54:01.985Z,13.30
2023-02-16T12:56:39.372Z,13.40
2023-02-16T12:59:25.033Z,13.40
2023-02-16T13:01:56.516Z,13.30
2023-02-16T13:05:00.652Z,13.30
2023-02-16T13:08:06.644Z,13.40
2023-02-16T13:10:44.429Z,13.50
2023-02-16T13:13:23.953Z,13.50
2023-02-16T13:16:20.430Z,13.50
2023-02-16T13:18:54.807Z,13.50
2023-02-16T13:21:50.496Z,13.30
2023-02-16T13:24:49.920Z,13.20
2023-02-16T13:27:39.075Z,13.40
2023-02-16T13:30:48.903Z,13.40
2023-02-16T13:33:37.932Z,13.40
2023-02-16T13:36:07.905Z,13.30
2023-02-16T13:38:57.948Z,13.30
2023-02-16T13:41:42.113Z,13.40
2023-02-16T13:44:17.390Z,13.50
2023-02-16T13:46:53.956Z,13.50
2023-02-16T13:49:42.429Z,13.40
2023-02-16T13:52:36.040Z,13.50
2023-02-16T13:55:26.259Z,13.60
2023-02-16T13:58:03.079Z,13.50
2023-02-16T14:00:38.449Z,13.50
2023-02-16T14:03:15.405Z,13.50
2023-02-16T14:05:46.203Z,13.40
2023-02-16T14:08:21.826Z,13.40
2023-02-16T14:10:56.210Z,13.40
2023-02-16T14:13:38.238Z,13.50
2023-02-16T14:16:12.152Z,13.50
2023-02-16T14:18:56.086Z,13.60
2023-02-16T14:21:37.164Z,13.60
2023-02-16T14:24:10.902Z,13.60
2023-02-16T14:27:03.862Z,13.50
2023-02-16T14:29:53.313Z,13.50
2023-02-16T14:32:34.014Z,13.40
2023-02-16T14:35:26.488Z,13.40
2023-02-16T14:37:55.348Z,13.30
2023-02-16T14:40:43.482Z,13.30
2023-02-16T14:43:29.096Z,13.20
2023-02-16T14:46:08.582Z,13.30
2023-02-16T14:48:59.236Z,13.40
2023-02-16T14:51:39.035Z,13.50
2023-02-16T14:54:26.107Z,13.40
2023-02-16T14:57:02.012Z,13.50
2023-02-16T14:59:39.011Z,13.50
2023-02-16T15:02:29.602Z,13.50
2023-02-16T15:04:58.406Z,13.50
2023-02-16T15:07:28.940Z,13.50
2023-02-16T15:09:59.129Z,13.30
2023-02-16T15:12:39.490Z,13.20
2023-02-16T15:15:13.646Z,13.30
2023-02-16T15:17:47.443Z,13.30
2023-02-16T15:20:29.496Z,13.20
2023-02-16T15:23:03.537Z,13.10
2023-02-16T15:25:33.249Z,13.10
2023-02-16T15:28:10.898Z,13.10
2023-02-16T15:30:48.351Z,13.20
2023-02-16T15:33:25.272Z,13.20
2023-02-16T15:36:03.330Z,13.20
2023-02-16T15:38:39.192Z,13.10
2023-02-16T15:41:10.158Z,13.10
2023-02-16T15:43:48.084Z,13.10
2023-02-16T15:46:34.999Z,13.00
2023-02-16T15:49:23.375Z,13.00
2023-02-16T15:51:51.544Z,12.90
2023-02-16T15:54:30.773Z,12.80
2023-02-16T15:57:00.753Z,12.80
2023-02-16T15:59:44.457Z,12.70
2023-02-16T16:02:18.710Z,12.70
2023-02-16T16:04:55.055Z,12.60
2023-02-16T16:07:32.024Z,12.50
2023-02-16T16:10:01.159Z,12.50
2023-02-16T16:12:31.051Z,12.40
2023-02-16T16:15:01.173Z,12.30
2023-02-16T16:17:37.327Z,12.20
2023-02-16T16:20:29.898Z,12.20
2023-02-16T16:23:22.509Z,12.10
2023-02-16T16:25:50.923Z,12.00
2023-02-16T16:28:27.982Z,12.00
2023-02-16T16:31:11.430Z,11.90
2023-02-16T16:33:54.847Z,11.80
2023-02-16T16:36:38.895Z,11.70
2023-02-16T16:39:18.505Z,11.60
2023-02-16T16:42:14.826Z,11.50
2023-02-16T16:44:53.978Z,11.30
2023-02-16T16:47:33.129Z,11.30
2023-02-16T16:50:10.488Z,11.20
2023-02-16T16:52:51.418Z,11.10
2023-02-16T16:55:19.489Z,11.00
2023-02-16T16:57:49.067Z,10.90
2023-02-16T17:00:19.510Z,10.80
2023-02-16T17:02:48.081Z,10.70
2023-02-16T17:05:16.225Z,10.60
2023-02-16T17:07:44.565Z,10.50
2023-02-16T17:10:12.933Z,10.50
2023-02-16T17:12:40.936Z,10.50
2023-02-16T17:15:39.664Z,10.40
2023-02-16T17:18:10.416Z,10.30
2023-02-16T17:20:39.387Z,10.30
2023-02-16T17:23:07.431Z,10.20
2023-02-16T17:25:36.112Z,10.10
2023-02-16T17:28:04.719Z,10.00
2023-02-16T17:30:34.058Z,9.90
2023-02-16T17:33:02.920Z,9.90
2023-02-16T17:35:31.768Z,9.90
2023-02-16T17:38:00.355Z,9.90
2023-02-16T17:40:28.664Z,9.80
2023-02-16T17:42:56.675Z,9.80
2023-02-16T17:45:24.951Z,9.80
2023-02-16T17:47:53.318Z,9.70
2023-02-16T17:50:21.863Z,9.60
2023-02-16T17:52:50.102Z,9.50
2023-02-16T17:55:18.947Z,9.40
2023-02-16T17:57:47.161Z,9.10
2023-02-16T18:00:20.042Z,9.00
2023-02-16T18:02:48.582Z,8.90
2023-02-16T18:05:17.307Z,8.80
2023-02-16T18:07:45.366Z,8.80
2023-02-16T18:10:31.451Z,8.90
2023-02-16T18:13:00.152Z,8.80
2023-02-16T18:15:28.849Z,8.80
2023-02-16T18:17:57.330Z,8.70
2023-02-16T18:20:26.740Z,8.60
2023-02-16T18:22:55.314Z,8.60
2023-02-16T18:25:23.910Z,8.50
2023-02-16T18:27:51.959Z,8.40
2023-02-16T18:30:20.327Z,8.30
2023-02-16T18:32:49.328Z,8.20
2023-02-16T18:35:19.094Z,8.20
2023-02-16T18:37:48.295Z,8.10
2023-02-16T18:40:19.844Z,8.20
2023-02-16T18:42:48.439Z,8.10
2023-02-16T18:45:17.013Z,8.10
2023-02-16T18:47:45.329Z,8.00
2023-02-16T18:50:39.698Z,8.00
2023-02-16T18:53:07.746Z,7.80
2023-02-16T18:55:35.955Z,7.70
2023-02-16T18:58:07.945Z,7.60
2023-02-16T19:00:37.369Z,7.70
2023-02-16T19:03:06.048Z,7.70
2023-02-16T19:05:34.418Z,7.60
2023-02-16T19:08:02.345Z,7.60
2023-02-16T19:10:30.459Z,7.50
2023-02-16T19:12:59.065Z,7.40
2023-02-16T19:15:28.184Z,7.30
2023-02-16T19:17:56.255Z,7.20
2023-02-16T19:20:25.725Z,7.20
2023-02-16T19:22:53.702Z,7.10
2023-02-16T19:25:22.466Z,7.00
2023-02-16T19:27:50.580Z,6.90
2023-02-16T19:30:21.745Z,6.80
2023-02-16T19:32:50.215Z,6.70
2023-02-16T19:35:18.615Z,6.70
2023-02-16T19:37:46.943Z,6.70
2023-02-16T19:40:16.477Z,6.60
2023-02-16T19:42:45.007Z,6.50
2023-02-16T19:45:13.710Z,6.40
2023-02-16T19:47:41.690Z,6.40
2023-02-16T19:50:34.994Z,6.60
2023-02-16T19:53:02.971Z,6.60
2023-02-16T19:55:30.850Z,6.60
2023-02-16T19:57:58.804Z,6.50
2023-02-16T20:00:26.696Z,6.40
2023-02-16T20:02:54.697Z,6.30
2023-02-16T20:05:23.039Z,6.20
2023-02-16T20:07:51.025Z,6.20
2023-02-16T20:10:18.959Z,6.20
2023-02-16T20:12:47.348Z,6.30
2023-02-16T20:15:15.508Z,6.40
2023-02-16T20:17:43.589Z,6.30
2023-02-16T20:20:12.763Z,6.20
2023-02-16T20:22:40.826Z,6.10
2023-02-16T20:25:09.344Z,6.00
2023-02-16T20:27:37.576Z,5.90
2023-02-16T20:30:11.124Z,5.80
2023-02-16T20:32:38.926Z,5.70
2023-02-16T20:35:07.682Z,5.70
2023-02-16T20:37:35.695Z,5.70
2023-02-16T20:40:04.034Z,5.60
2023-02-16T20:42:32.001Z,5.70
2023-02-16T20:44:59.976Z,5.70
2023-02-16T20:47:28.410Z,5.60
2023-02-16T20:49:56.543Z,5.70
2023-02-16T20:52:24.604Z,5.70
2023-02-16T20:54:52.563Z,5.70
2023-02-16T20:57:26.763Z,5.70
2023-02-16T20:59:55.654Z,5.70
2023-02-16T21:02:24.114Z,5.70
2023-02-16T21:04:52.237Z,5.70
2023-02-16T21:07:20.440Z,5.70
2023-02-16T21:09:48.499Z,5.80
2023-02-16T21:12:16.926Z,5.70
2023-02-16T21:14:44.831Z,5.70
2023-02-16T21:17:12.722Z,5.60
2023-02-16T21:19:42.115Z,5.70
2023-02-16T21:22:10.059Z,5.60
2023-02-16T21:24:40.800Z,5.60
2023-02-16T21:27:09.127Z,5.60
2023-02-16T21:29:37.352Z,5.60
2023-02-16T21:32:05.777Z,5.50
2023-02-16T21:34:33.756Z,5.40
2023-02-16T21:37:02.301Z,5.40
2023-02-16T21:39:48.602Z,5.40
2023-02-16T21:42:17.084Z,5.50
2023-02-16T21:44:45.232Z,5.60
2023-02-16T21:47:34.362Z,5.60
2023-02-16T21:50:02.354Z,5.70
2023-02-16T21:52:30.458Z,5.70
2023-02-16T21:55:17.095Z,5.70
2023-02-16T21:57:45.671Z,5.60
2023-02-16T22:00:15.620Z,5.60
2023-02-16T22:02:45.278Z,5.60
2023-02-16T22:05:13.683Z,5.60
2023-02-16T22:07:41.586Z,5.70
2023-02-16T22:10:10.499Z,5.70
2023-02-16T22:12:38.505Z,5.70
2023-02-16T22:15:07.375Z,5.80
2023-02-16T22:17:35.449Z,5.80
2023-02-16T22:20:03.955Z,5.90
2023-02-16T22:22:31.960Z,5.90
2023-02-16T22:24:59.996Z,5.80
2023-02-16T22:27:28.477Z,5.80
2023-02-16T22:29:56.776Z,5.80
2023-02-16T22:32:25.294Z,5.80
2023-02-16T22:34:54.585Z,5.80
2023-02-16T22:37:23.054Z,5.80
2023-02-16T22:39:52.121Z,5.80
2023-02-16T22:42:19.973Z,5.80
2023-02-16T22:44:48.490Z,5.70
2023-02-16T22:47:16.744Z,5.80
2023-02-16T22:49:45.566Z,5.70
2023-02-16T22:52:13.533Z,5.70
2023-02-16T22:54:41.398Z,5.80
2023-02-16T22:57:09.390Z,5.70
2023-02-16T22:59:37.431Z,5.70
2023-02-16T23:02:05.469Z,5.70
2023-02-16T23:04:34.055Z,5.70
2023-02-16T23:07:01.947Z,5.70
2023-02-16T23:09:30.190Z,5.70
2023-02-16T23:11:58.521Z,5.70
2023-02-16T23:14:29.201Z,5.80
2023-02-16T23:16:57.398Z,5.80
2023-02-16T23:19:27.090Z,5.80
2023-02-16T23:21:55.502Z,5.80
2023-02-16T23:24:25.192Z,5.80
2023-02-16T23:26:53.762Z,5.80
2023-02-16T23:29:22.189Z,5.80
2023-02-16T23:31:50.417Z,5.80
2023-02-16T23:34:19.289Z,5.80
2023-02-16T23:36:47.351Z,5.80
2023-02-16T23:39:17.571Z,5.80
2023-02-16T23:41:45.682Z,5.70
2023-02-16T23:44:17.963Z,5.70
2023-02-16T23:46:46.402Z,5.70
2023-02-16T23:49:14.371Z,5.70
2023-02-16T23:51:42.306Z,5.70
2023-02-16T23:54:11.684Z,5.70
2023-02-16T23:56:41.355Z,5.60
2023-02-16T23:59:09.640Z,5.60
